Time;durP1;ratioP1;P1;durP2;ratioP2;P2;SDS_P1;SDS_P2;PMS_P1;PMS_P2;Temp;Humidity;BMP_temperature;BMP_pressure;BME280_temperature;BME280_humidity;BME280_pressure;Samples;Min_cycle;Max_cycle;Signal;HPM_P1;HPM_P2
2021/03/04 00:00:46;;;;;;;83.07;39.80;;;9.70;72.60;;;;;;4972908;28;20953;-64
2021/03/04 00:03:11;;;;;;;90.75;43.20;;;9.70;71.60;;;;;;4962689;28;20126;-63
2021/03/04 00:05:37;;;;;;;86.50;41.42;;;9.80;71.70;;;;;;4948947;28;20031;-63
2021/03/04 00:08:04;;;;;;;83.35;39.00;;;9.80;71.70;;;;;;4947880;28;20473;-63
2021/03/04 00:10:30;;;;;;;86.93;41.72;;;9.80;71.60;;;;;;4954063;28;20064;-63
2021/03/04 00:12:56;;;;;;;79.82;37.38;;;9.70;71.50;;;;;;5020924;28;20460;-63
2021/03/04 00:15:24;;;;;;;76.57;35.90;;;9.70;71.90;;;;;;4987657;28;20400;-63
2021/03/04 00:17:51;;;;;;;85.40;40.35;;;9.60;71.90;;;;;;4945704;29;20023;-63
2021/03/04 00:20:26;;;;;;;93.43;42.42;;;9.60;72.00;;;;;;5006848;28;20528;-64
2021/03/04 00:22:52;;;;;;;85.40;41.10;;;9.50;72.40;;;;;;4981232;28;20451;-63
2021/03/04 00:25:19;;;;;;;72.28;36.30;;;9.60;72.40;;;;;;5009075;28;20114;-63
2021/03/04 00:27:45;;;;;;;74.45;37.90;;;9.60;72.00;;;;;;4951549;28;20036;-63
2021/03/04 00:30:13;;;;;;;80.88;39.38;;;9.60;72.50;;;;;;5005674;28;20021;-63
2021/03/04 00:32:38;;;;;;;81.22;40.17;;;9.50;72.30;;;;;;4954289;28;20061;-63
2021/03/04 00:35:06;;;;;;;73.97;35.65;;;9.70;71.80;;;;;;4961682;28;20047;-62
2021/03/04 00:37:31;;;;;;;71.78;33.92;;;9.70;71.70;;;;;;4955618;28;20043;-63
2021/03/04 00:39:57;;;;;;;77.70;39.05;;;9.70;71.80;;;;;;4962434;28;20049;-63
2021/03/04 00:42:23;;;;;;;66.95;37.45;;;9.60;72.30;;;;;;4992229;28;20061;-63
2021/03/04 00:44:48;;;;;;;80.70;36.40;;;9.50;72.60;;;;;;4939688;28;20074;-64
2021/03/04 00:47:14;;;;;;;78.93;37.20;;;9.40;72.90;;;;;;4964615;28;20118;-63
2021/03/04 00:49:40;;;;;;;74.28;35.08;;;9.30;73.40;;;;;;5009003;28;20136;-63
2021/03/04 00:52:07;;;;;;;62.80;30.65;;;9.40;72.90;;;;;;4957778;28;20029;-63
2021/03/04 00:54:32;;;;;;;69.88;33.58;;;9.40;74.00;;;;;;4990146;28;20066;-63
2021/03/04 00:56:58;;;;;;;69.80;32.47;;;9.50;72.30;;;;;;4994794;28;20045;-63
2021/03/04 00:59:23;;;;;;;75.85;34.15;;;9.50;72.70;;;;;;5016109;28;20057;-63
2021/03/04 01:01:49;;;;;;;67.05;33.05;;;9.50;72.70;;;;;;4956452;28;20434;-63
2021/03/04 01:04:14;;;;;;;68.85;33.35;;;9.40;73.20;;;;;;4950699;28;20129;-63
2021/03/04 01:06:40;;;;;;;72.40;34.35;;;9.40;73.30;;;;;;4954496;28;20469;-63
2021/03/04 01:09:06;;;;;;;77.68;36.35;;;9.30;73.20;;;;;;4953469;28;20043;-63
2021/03/04 01:11:33;;;;;;;79.53;35.13;;;9.30;73.80;;;;;;5027399;28;20057;-63
2021/03/04 01:13:59;;;;;;;81.63;41.90;;;9.20;74.20;;;;;;4955198;28;20054;-63
2021/03/04 01:16:24;;;;;;;69.13;33.70;;;9.10;74.30;;;;;;4957292;28;20043;-63
2021/03/04 01:18:51;;;;;;;75.75;36.40;;;9.10;74.70;;;;;;4949597;28;20035;-63
2021/03/04 01:21:16;;;;;;;75.38;34.78;;;9.10;74.80;;;;;;4964813;28;20052;-63
2021/03/04 01:23:42;;;;;;;83.82;38.17;;;9.20;74.00;;;;;;4969725;28;20035;-64
2021/03/04 01:26:08;;;;;;;75.55;37.17;;;9.00;73.50;;;;;;4963554;28;20032;-63
2021/03/04 01:28:33;;;;;;;75.93;34.78;;;9.20;74.10;;;;;;4959957;28;20044;-64
2021/03/04 01:30:59;;;;;;;67.40;32.40;;;9.10;74.10;;;;;;4982775;28;20439;-63
2021/03/04 01:33:25;;;;;;;75.70;34.08;;;9.20;74.30;;;;;;5038832;28;20414;-63
2021/03/04 01:35:50;;;;;;;73.38;33.70;;;9.30;73.90;;;;;;4955106;28;20039;-63
2021/03/04 01:38:16;;;;;;;67.53;33.63;;;9.30;73.90;;;;;;4949103;28;20035;-62
2021/03/04 01:40:42;;;;;;;69.70;34.20;;;9.40;73.80;;;;;;5024108;28;20036;-63
2021/03/04 01:43:08;;;;;;;74.30;34.60;;;9.40;73.60;;;;;;4979173;28;20042;-63
2021/03/04 01:45:34;;;;;;;73.28;33.65;;;9.30;74.00;;;;;;4984950;28;20485;-63
2021/03/04 01:48:01;;;;;;;70.80;33.92;;;9.40;73.90;;;;;;4950310;29;20047;-63
2021/03/04 01:50:29;;;;;;;65.68;33.60;;;9.30;73.90;;;;;;4960424;28;20063;-63
2021/03/04 01:52:55;;;;;;;65.03;32.78;;;9.30;73.70;;;;;;4953016;28;20093;-63
2021/03/04 01:55:21;;;;;;;63.72;30.83;;;9.30;73.10;;;;;;4978846;28;20037;-63
2021/03/04 01:57:47;;;;;;;69.10;33.60;;;9.40;73.30;;;;;;5017879;28;20036;-63
2021/03/04 02:00:15;;;;;;;74.18;32.83;;;9.30;73.80;;;;;;4976228;28;20520;-63
2021/03/04 02:02:42;;;;;;;78.68;35.28;;;9.30;73.70;;;;;;4955625;28;20031;-63
2021/03/04 02:05:10;;;;;;;72.13;33.67;;;9.20;74.00;;;;;;4977677;28;20019;-63
2021/03/04 02:07:36;;;;;;;66.60;32.65;;;9.20;74.10;;;;;;4948685;28;20089;-63
2021/03/04 02:10:24;;;;;;;74.13;34.25;;;9.20;74.50;;;;;;4998737;28;20416;-63
2021/03/04 02:13:10;;;;;;;65.47;31.73;;;9.20;74.00;;;;;;4955905;28;20031;-63
2021/03/04 02:15:41;;;;;;;75.88;33.17;;;9.20;74.00;;;;;;4989221;28;20453;-63
2021/03/04 02:18:12;;;;;;;74.70;32.88;;;9.20;73.80;;;;;;5001093;28;20021;-63
2021/03/04 02:21:11;;;;;;;75.90;34.47;;;9.20;73.90;;;;;;4948808;28;20023;-63
2021/03/04 02:23:48;;;;;;;66.03;30.58;;;9.10;74.50;;;;;;4953591;28;20484;-63
2021/03/04 02:26:31;;;;;;;76.30;34.38;;;9.20;74.10;;;;;;4975321;28;20047;-63
2021/03/04 02:28:58;;;;;;;70.75;30.63;;;9.10;74.60;;;;;;4996780;28;20112;-63
2021/03/04 02:31:29;;;;;;;74.10;33.58;;;9.10;74.50;;;;;;4956254;28;20122;-63
2021/03/04 02:33:55;;;;;;;61.05;29.05;;;9.00;74.20;;;;;;4943087;28;20035;-63
2021/03/04 02:36:24;;;;;;;59.60;28.80;;;9.00;74.70;;;;;;4993129;28;20484;-63
2021/03/04 02:38:50;;;;;;;55.13;29.10;;;9.10;73.80;;;;;;4961460;28;20031;-63
2021/03/04 02:41:17;;;;;;;55.85;28.15;;;9.00;74.20;;;;;;4949043;28;20555;-63
2021/03/04 02:43:43;;;;;;;58.40;28.70;;;9.10;74.00;;;;;;4960553;28;20043;-63
2021/03/04 02:46:12;;;;;;;55.15;25.88;;;9.20;73.50;;;;;;4967270;28;20047;-63
2021/03/04 02:48:40;;;;;;;54.17;27.75;;;9.30;72.70;;;;;;5045917;28;20060;-63
2021/03/04 02:51:06;;;;;;;57.80;29.05;;;9.30;72.70;;;;;;5019837;28;20126;-63
2021/03/04 02:53:33;;;;;;;58.63;29.90;;;9.20;73.10;;;;;;4955312;28;20039;-63
2021/03/04 02:56:00;;;;;;;58.80;28.20;;;9.10;72.80;;;;;;4957877;28;20025;-63
2021/03/04 02:58:27;;;;;;;56.25;26.75;;;9.10;72.90;;;;;;4953494;28;20032;-63
2021/03/04 03:00:52;;;;;;;57.40;25.85;;;9.00;73.40;;;;;;4950508;28;20047;-63
2021/03/04 03:03:20;;;;;;;62.08;28.77;;;8.90;73.30;;;;;;4970695;28;20039;-63
2021/03/04 03:05:47;;;;;;;61.67;26.33;;;8.90;74.00;;;;;;5000108;28;20017;-63
2021/03/04 03:08:17;;;;;;;59.20;28.48;;;8.90;74.40;;;;;;4946141;28;20154;-63
2021/03/04 03:10:49;;;;;;;68.78;29.98;;;8.90;74.30;;;;;;4951525;28;20347;-63
2021/03/04 03:13:15;;;;;;;72.85;33.40;;;8.80;74.90;;;;;;4938455;28;20858;-63
2021/03/04 03:15:41;;;;;;;69.15;30.27;;;8.70;75.10;;;;;;4964404;28;20395;-63
2021/03/04 03:18:07;;;;;;;62.90;29.00;;;8.70;75.50;;;;;;4947047;28;20050;-63
2021/03/04 03:20:32;;;;;;;62.45;32.25;;;8.60;75.50;;;;;;4947039;28;20035;-63
2021/03/04 03:22:58;;;;;;;62.33;31.55;;;8.50;76.00;;;;;;5031258;28;20550;-63
2021/03/04 03:25:24;;;;;;;59.90;29.85;;;8.50;76.10;;;;;;4959559;28;20068;-63
2021/03/04 03:27:50;;;;;;;65.22;30.10;;;8.50;76.00;;;;;;4963257;28;20515;-63
2021/03/04 03:30:17;;;;;;;59.92;28.23;;;8.70;74.80;;;;;;4977141;28;20035;-63
2021/03/04 03:32:46;;;;;;;61.28;29.60;;;8.80;74.40;;;;;;4985258;28;20027;-63
2021/03/04 03:35:14;;;;;;;61.10;30.02;;;8.80;74.90;;;;;;4957202;28;20093;-63
2021/03/04 03:37:40;;;;;;;61.40;29.02;;;8.80;74.60;;;;;;4947692;28;20027;-63
2021/03/04 03:40:08;;;;;;;54.67;26.00;;;8.90;74.40;;;;;;4971928;28;20050;-63
2021/03/04 03:42:35;;;;;;;59.72;29.33;;;8.90;74.00;;;;;;4938773;28;20486;-63
2021/03/04 03:45:07;;;;;;;56.83;27.63;;;8.90;73.30;;;;;;4960222;28;20044;-64
2021/03/04 03:47:35;;;;;;;56.30;26.48;;;8.90;73.80;;;;;;4963293;28;20358;-63
2021/03/04 03:50:02;;;;;;;58.10;28.45;;;8.80;73.30;;;;;;4948665;28;20047;-63
2021/03/04 03:52:30;;;;;;;60.05;28.55;;;8.80;73.40;;;;;;4968229;28;20035;-63
2021/03/04 03:54:58;;;;;;;57.90;28.92;;;8.80;73.90;;;;;;4973570;28;20489;-63
2021/03/04 03:57:27;;;;;;;56.55;27.65;;;8.80;74.00;;;;;;4957783;28;20039;-63
2021/03/04 03:59:53;;;;;;;63.20;25.08;;;8.80;73.80;;;;;;4975941;28;20030;-63
2021/03/04 04:02:20;;;;;;;53.92;25.30;;;8.90;73.90;;;;;;4958150;28;20050;-63
2021/03/04 04:04:45;;;;;;;62.78;28.98;;;8.90;74.00;;;;;;4958569;28;20061;-63
2021/03/04 04:07:14;;;;;;;61.22;28.35;;;8.80;74.10;;;;;;4956371;28;20135;-63
2021/03/04 04:09:40;;;;;;;68.82;31.77;;;8.70;74.50;;;;;;4957279;28;20035;-62
2021/03/04 04:12:06;;;;;;;59.97;27.20;;;8.60;75.00;;;;;;4983439;28;20039;-63
2021/03/04 04:14:31;;;;;;;64.95;32.28;;;8.70;74.70;;;;;;4957541;28;20358;-63
2021/03/04 04:16:57;;;;;;;73.70;29.58;;;8.70;75.40;;;;;;4963808;28;20047;-63
2021/03/04 04:19:23;;;;;;;73.97;33.22;;;8.60;75.50;;;;;;4978553;28;20034;-63
2021/03/04 04:21:49;;;;;;;68.03;31.83;;;8.60;75.70;;;;;;4950860;29;20043;-63
2021/03/04 04:24:16;;;;;;;74.70;33.92;;;8.50;75.80;;;;;;4990684;28;20042;-63
2021/03/04 04:26:42;;;;;;;68.45;30.80;;;8.60;75.80;;;;;;4976844;28;20500;-63
2021/03/04 04:29:07;;;;;;;62.13;27.55;;;8.60;75.80;;;;;;4978901;28;20037;-63
2021/03/04 04:31:33;;;;;;;61.60;30.58;;;8.60;75.70;;;;;;4965460;28;20043;-63
2021/03/04 04:33:58;;;;;;;62.67;30.15;;;8.60;75.80;;;;;;4957947;28;20035;-63
2021/03/04 04:36:24;;;;;;;70.55;30.15;;;8.60;75.60;;;;;;4952295;28;20114;-63
2021/03/04 04:38:50;;;;;;;53.95;27.23;;;8.70;75.20;;;;;;4977357;28;20133;-63
2021/03/04 04:41:15;;;;;;;65.00;28.08;;;8.80;74.20;;;;;;4979764;28;20510;-63
2021/03/04 04:43:41;;;;;;;63.03;27.40;;;8.80;74.70;;;;;;4999454;28;20035;-63
2021/03/04 04:46:07;;;;;;;62.22;28.35;;;8.80;74.80;;;;;;4990172;28;20039;-64
2021/03/04 04:48:32;;;;;;;55.28;28.25;;;8.80;74.60;;;;;;4950873;28;20059;-64
2021/03/04 04:50:58;;;;;;;56.60;28.40;;;8.80;74.30;;;;;;4949754;28;20061;-65
2021/03/04 04:53:23;;;;;;;56.88;29.92;;;8.90;73.20;;;;;;4952677;28;20043;-63
2021/03/04 04:55:50;;;;;;;56.65;27.23;;;8.90;73.70;;;;;;4980494;28;20396;-63
2021/03/04 04:58:15;;;;;;;54.10;24.55;;;8.90;73.50;;;;;;4960308;28;20031;-63
2021/03/04 05:00:41;;;;;;;54.58;24.48;;;9.00;73.40;;;;;;4986366;28;20039;-63
2021/03/04 05:03:06;;;;;;;53.33;26.38;;;9.00;73.40;;;;;;4975951;28;20048;-63
2021/03/04 05:05:32;;;;;;;53.83;24.15;;;9.00;72.70;;;;;;5009288;28;20505;-63
2021/03/04 05:07:58;;;;;;;47.45;22.90;;;9.00;73.20;;;;;;4977384;28;20059;-63
2021/03/04 05:10:23;;;;;;;50.38;24.15;;;9.00;72.60;;;;;;4960929;28;20334;-63
2021/03/04 05:12:49;;;;;;;47.95;25.60;;;9.10;72.50;;;;;;4951060;28;20073;-63
2021/03/04 05:15:15;;;;;;;46.47;22.17;;;9.00;72.90;;;;;;4981456;28;20083;-63
2021/03/04 05:17:41;;;;;;;48.50;21.50;;;9.10;72.20;;;;;;4957808;28;20473;-62
2021/03/04 05:20:07;;;;;;;48.90;24.52;;;9.10;72.60;;;;;;5019056;28;20029;-62
2021/03/04 05:22:33;;;;;;;54.67;27.17;;;9.10;72.50;;;;;;4942088;28;20074;-63
2021/03/04 05:24:59;;;;;;;52.85;24.85;;;9.10;72.30;;;;;;4950530;28;20453;-63
2021/03/04 05:27:26;;;;;;;50.38;23.58;;;9.10;72.00;;;;;;5039024;28;20090;-63
2021/03/04 05:29:55;;;;;;;54.63;24.08;;;9.00;72.50;;;;;;4962121;28;20423;-62
2021/03/04 05:32:20;;;;;;;51.55;23.33;;;9.00;72.40;;;;;;4945033;28;20039;-63
2021/03/04 05:34:46;;;;;;;49.55;24.08;;;9.10;71.70;;;;;;4949239;28;20035;-62
2021/03/04 05:37:12;;;;;;;46.25;22.05;;;9.00;72.10;;;;;;5009628;28;20039;-63
2021/03/04 05:39:38;;;;;;;50.65;24.17;;;8.90;72.30;;;;;;4967484;28;20040;-63
2021/03/04 05:42:09;;;;;;;48.83;22.92;;;8.90;72.10;;;;;;4955258;28;20122;-63
2021/03/04 05:44:36;;;;;;;51.38;23.25;;;8.80;72.60;;;;;;4950625;28;20032;-62
2021/03/04 05:47:04;;;;;;;61.42;28.65;;;8.80;72.60;;;;;;5020067;28;20058;-63
2021/03/04 05:49:31;;;;;;;53.10;25.08;;;8.70;73.20;;;;;;4968928;28;20059;-62
2021/03/04 05:52:00;;;;;;;55.17;25.27;;;8.60;73.30;;;;;;4952867;28;20041;-63
2021/03/04 05:54:28;;;;;;;52.17;22.77;;;8.50;73.90;;;;;;4948692;28;20042;-62
2021/03/04 05:56:57;;;;;;;54.40;25.30;;;8.40;74.00;;;;;;4994035;28;20119;-63
2021/03/04 05:59:23;;;;;;;53.65;23.23;;;8.30;74.50;;;;;;4962063;28;20492;-63
2021/03/04 06:01:51;;;;;;;59.35;25.08;;;8.60;73.80;;;;;;4954421;28;20059;-63
2021/03/04 06:04:17;;;;;;;59.03;28.17;;;8.50;74.20;;;;;;4969623;28;20456;-63
2021/03/04 06:06:43;;;;;;;50.90;22.33;;;8.60;74.10;;;;;;4992245;28;20035;-63
2021/03/04 06:09:08;;;;;;;54.28;23.55;;;8.50;74.00;;;;;;5012466;28;20689;-63
2021/03/04 06:11:36;;;;;;;53.03;24.65;;;8.60;74.00;;;;;;5000573;28;20530;-63
2021/03/04 06:14:03;;;;;;;49.28;22.33;;;8.60;74.00;;;;;;4929453;29;20039;-63
2021/03/04 06:16:29;;;;;;;61.45;27.40;;;8.70;73.10;;;;;;4983679;28;20029;-65
2021/03/04 06:18:54;;;;;;;56.97;26.77;;;8.70;73.60;;;;;;4967190;28;20323;-65
2021/03/04 06:21:24;;;;;;;58.30;27.55;;;8.60;73.50;;;;;;4949230;28;20035;-65
2021/03/04 06:23:51;;;;;;;56.83;27.90;;;8.50;73.90;;;;;;4955440;28;20039;-65
2021/03/04 06:26:37;;;;;;;53.35;25.13;;;8.40;74.50;;;;;;4965052;28;20037;-65
2021/03/04 06:29:19;;;;;;;50.25;21.92;;;8.40;74.40;;;;;;4949454;28;20175;-65
2021/03/04 06:31:57;;;;;;;57.58;25.77;;;8.50;74.10;;;;;;4985531;28;20019;-65
2021/03/04 06:34:23;;;;;;;54.47;24.83;;;8.50;74.20;;;;;;4947412;29;20437;-63
2021/03/04 06:37:06;;;;;;;49.95;23.45;;;8.50;74.30;;;;;;4955420;28;20133;-62
2021/03/04 06:39:43;;;;;;;58.00;25.55;;;8.50;74.20;;;;;;4949520;28;20081;-65
2021/03/04 06:42:10;;;;;;;56.15;23.67;;;8.60;73.90;;;;;;4997251;28;20039;-65
2021/03/04 06:44:39;;;;;;;56.50;24.95;;;8.60;73.90;;;;;;4952542;28;20035;-65
2021/03/04 06:47:06;;;;;;;56.53;26.60;;;8.60;74.00;;;;;;4958887;28;20038;-65
2021/03/04 06:49:42;;;;;;;52.90;23.52;;;8.60;73.80;;;;;;4954004;28;20090;-65
2021/03/04 06:52:09;;;;;;;52.80;25.45;;;8.60;73.80;;;;;;4949067;28;20453;-65
2021/03/04 06:54:35;;;;;;;61.60;28.40;;;8.60;73.00;;;;;;4956017;28;20031;-65
2021/03/04 06:57:14;;;;;;;55.33;25.52;;;8.50;73.60;;;;;;4948777;29;20471;-65
2021/03/04 06:59:44;;;;;;;48.53;22.10;;;8.50;73.80;;;;;;4954933;28;20346;-65
2021/03/04 07:02:10;;;;;;;55.50;23.00;;;8.50;73.30;;;;;;4949294;29;20046;-65
2021/03/04 07:04:36;;;;;;;53.25;24.45;;;8.60;73.40;;;;;;5040393;28;20041;-65
2021/03/04 07:07:05;;;;;;;56.13;25.23;;;8.50;73.90;;;;;;4951181;28;20367;-65
2021/03/04 07:09:34;;;;;;;53.42;25.05;;;8.50;73.80;;;;;;4996987;28;20036;-62
2021/03/04 07:12:00;;;;;;;59.65;24.63;;;8.40;73.80;;;;;;5001578;28;20052;-63
2021/03/04 07:14:26;;;;;;;58.00;23.42;;;8.30;74.30;;;;;;4999591;28;20021;-65
2021/03/04 07:16:53;;;;;;;47.28;22.30;;;8.30;74.70;;;;;;4966064;28;20034;-64
2021/03/04 07:19:20;;;;;;;55.22;22.23;;;8.30;74.50;;;;;;5022595;28;20102;-63
2021/03/04 07:21:48;;;;;;;51.28;23.08;;;8.50;73.50;;;;;;4999441;28;20029;-63
2021/03/04 07:24:14;;;;;;;56.47;24.65;;;8.40;73.50;;;;;;4998949;28;20086;-63
2021/03/04 07:26:40;;;;;;;54.47;22.92;;;8.40;74.00;;;;;;4989943;28;20108;-63
2021/03/04 07:29:10;;;;;;;53.95;23.30;;;8.50;73.90;;;;;;4985187;28;20458;-63
2021/03/04 07:31:42;;;;;;;47.65;22.35;;;8.50;73.70;;;;;;4945349;28;20031;-63
2021/03/04 07:34:19;;;;;;;55.83;22.65;;;8.50;73.70;;;;;;4951284;28;20451;-63
2021/03/04 07:36:50;;;;;;;52.17;21.95;;;8.60;73.00;;;;;;4944093;28;20050;-63
2021/03/04 07:39:15;;;;;;;53.38;22.65;;;8.50;73.50;;;;;;4950867;28;20062;-63
2021/03/04 07:41:45;;;;;;;56.22;24.05;;;8.30;73.50;;;;;;4944984;28;20493;-63
2021/03/04 07:44:32;;;;;;;54.85;24.15;;;8.30;74.10;;;;;;4943097;28;20054;-63
2021/03/04 07:47:07;;;;;;;43.85;21.33;;;8.50;73.40;;;;;;4946939;28;20047;-63
2021/03/04 07:49:33;;;;;;;47.92;22.15;;;8.50;73.00;;;;;;4949408;28;20122;-62
2021/03/04 07:52:14;;;;;;;54.10;23.90;;;8.60;72.80;;;;;;4949192;28;20023;-64
2021/03/04 07:54:41;;;;;;;52.88;23.77;;;8.50;73.20;;;;;;4949518;28;20038;-63
2021/03/04 07:57:09;;;;;;;53.92;23.02;;;8.60;72.50;;;;;;4941801;28;20428;-63
2021/03/04 07:59:36;;;;;;;53.40;23.40;;;8.60;73.00;;;;;;4950830;29;20423;-63
2021/03/04 08:02:04;;;;;;;44.22;20.58;;;8.70;72.20;;;;;;4950493;28;20039;-63
2021/03/04 08:04:30;;;;;;;43.40;20.05;;;8.80;72.10;;;;;;4945065;28;20097;-63
2021/03/04 08:06:58;;;;;;;45.97;22.73;;;8.80;71.90;;;;;;4950566;28;20062;-63
2021/03/04 08:09:34;;;;;;;54.13;25.05;;;8.70;72.30;;;;;;4947214;28;20034;-63
2021/03/04 08:12:08;;;;;;;61.97;27.20;;;8.80;72.40;;;;;;4959486;28;20066;-63
2021/03/04 08:14:35;;;;;;;56.38;23.42;;;8.90;71.70;;;;;;4956420;28;20032;-63
2021/03/04 08:17:02;;;;;;;51.20;23.20;;;8.80;71.80;;;;;;4951161;28;20486;-63
2021/03/04 08:19:30;;;;;;;59.25;23.63;;;8.80;72.30;;;;;;4998482;28;20032;-63
2021/03/04 08:22:05;;;;;;;52.65;21.55;;;8.80;72.50;;;;;;4951592;28;20489;-63
2021/03/04 08:24:32;;;;;;;52.42;22.27;;;8.50;73.00;;;;;;5004416;28;20333;-63
2021/03/04 08:26:59;;;;;;;60.22;24.48;;;8.50;73.00;;;;;;4964322;28;20118;-63
2021/03/04 08:29:25;;;;;;;62.38;27.33;;;8.50;73.60;;;;;;4934008;28;20208;-63
2021/03/04 08:31:53;;;;;;;50.25;24.48;;;8.30;74.10;;;;;;4938521;29;20046;-63
2021/03/04 08:34:19;;;;;;;54.53;21.88;;;8.30;74.30;;;;;;4947751;28;20031;-63
2021/03/04 08:36:47;;;;;;;57.55;23.80;;;8.40;74.10;;;;;;4930844;28;20043;-64
2021/03/04 08:39:14;;;;;;;52.92;21.33;;;8.70;73.20;;;;;;4944136;28;20113;-63
2021/03/04 08:41:40;;;;;;;50.67;20.77;;;8.80;73.00;;;;;;4950500;28;20042;-64
2021/03/04 08:44:14;;;;;;;51.05;21.38;;;8.80;72.70;;;;;;4947991;28;20415;-63
2021/03/04 08:46:48;;;;;;;55.92;24.02;;;8.70;73.10;;;;;;4949775;28;20023;-63
2021/03/04 08:49:18;;;;;;;51.40;21.42;;;8.70;73.00;;;;;;4935295;28;20047;-63
2021/03/04 08:51:44;;;;;;;45.55;20.50;;;8.80;72.30;;;;;;4945740;28;20113;-63
2021/03/04 08:54:27;;;;;;;50.45;19.92;;;8.80;72.10;;;;;;4949585;29;20142;-63
2021/03/04 08:56:55;;;;;;;46.08;18.63;;;8.90;72.00;;;;;;4948885;28;20150;-63
2021/03/04 08:59:27;;;;;;;42.10;19.50;;;8.80;72.50;;;;;;4949578;28;20114;-64
2021/03/04 09:01:59;;;;;;;37.80;19.33;;;9.00;71.60;;;;;;4950189;28;20107;-63
2021/03/04 09:04:27;;;;;;;40.28;17.55;;;8.90;72.10;;;;;;4947333;28;20040;-63
2021/03/04 09:06:54;;;;;;;46.17;20.77;;;8.90;71.90;;;;;;4956284;28;20038;-63
2021/03/04 09:09:30;;;;;;;46.53;19.42;;;8.90;72.10;;;;;;4934676;29;20338;-64
2021/03/04 09:11:59;;;;;;;46.72;21.52;;;9.00;71.10;;;;;;4940597;28;20114;-63
2021/03/04 09:14:32;;;;;;;47.85;20.42;;;8.90;71.60;;;;;;4943133;29;20042;-63
2021/03/04 09:16:59;;;;;;;43.70;18.08;;;8.90;71.20;;;;;;4946385;28;20040;-63
2021/03/04 09:19:33;;;;;;;52.10;20.55;;;8.80;71.20;;;;;;4948892;28;20027;-63
2021/03/04 09:22:03;;;;;;;44.97;18.50;;;8.60;71.90;;;;;;4941370;28;20043;-63
2021/03/04 09:24:32;;;;;;;47.28;19.48;;;8.70;72.30;;;;;;4944429;28;20393;-63
2021/03/04 09:27:00;;;;;;;46.38;20.08;;;8.90;72.50;;;;;;4944580;28;20054;-63
2021/03/04 09:29:26;;;;;;;39.83;18.30;;;8.60;72.40;;;;;;4946777;28;20031;-64
2021/03/04 09:31:53;;;;;;;42.28;16.52;;;8.50;72.80;;;;;;4952931;28;20319;-63
2021/03/04 09:34:29;;;;;;;42.67;20.50;;;8.70;72.30;;;;;;4947040;28;20493;-63
2021/03/04 09:37:06;;;;;;;47.25;19.50;;;8.60;72.70;;;;;;4944111;29;20043;-64
2021/03/04 09:39:46;;;;;;;42.72;20.10;;;8.60;72.50;;;;;;4947732;28;20050;-63
2021/03/04 09:42:15;;;;;;;48.78;19.75;;;8.60;73.10;;;;;;4930574;28;20450;-63
2021/03/04 09:44:55;;;;;;;50.10;22.92;;;8.60;73.00;;;;;;4935471;28;20026;-63
2021/03/04 09:47:25;;;;;;;45.22;17.85;;;8.40;73.40;;;;;;4944577;28;20161;-63
2021/03/04 09:49:55;;;;;;;37.67;17.27;;;8.30;74.00;;;;;;4948033;28;20075;-63
2021/03/04 09:52:26;;;;;;;39.45;17.98;;;8.40;73.90;;;;;;4949035;28;20035;-63
2021/03/04 09:55:09;;;;;;;40.80;17.23;;;8.70;73.10;;;;;;4931916;28;20035;-64
2021/03/04 09:57:42;;;;;;;34.22;15.38;;;8.70;72.50;;;;;;4947723;28;20088;-64
2021/03/04 10:00:17;;;;;;;37.35;17.70;;;8.70;72.70;;;;;;4946645;28;20035;-64
2021/03/04 10:02:45;;;;;;;34.55;16.17;;;8.60;73.20;;;;;;4944062;28;20036;-64
2021/03/04 10:05:22;;;;;;;37.47;15.35;;;8.60;73.00;;;;;;4943378;28;20031;-63
2021/03/04 10:07:49;;;;;;;35.20;14.82;;;8.50;72.70;;;;;;4958706;28;20039;-63
2021/03/04 10:10:20;;;;;;;34.05;15.45;;;8.50;73.20;;;;;;4952962;28;20501;-63
2021/03/04 10:12:55;;;;;;;35.63;15.60;;;8.70;72.10;;;;;;4948222;28;20141;-63
2021/03/04 10:15:28;;;;;;;33.63;14.88;;;8.80;71.70;;;;;;4947748;28;20463;-63
2021/03/04 10:17:55;;;;;;;35.20;15.40;;;8.70;72.10;;;;;;4947461;28;20077;-63
2021/03/04 10:20:21;;;;;;;34.38;14.85;;;8.80;71.40;;;;;;4934677;29;20039;-64
2021/03/04 10:22:48;;;;;;;31.33;14.00;;;8.80;71.90;;;;;;4938998;28;20540;-64
2021/03/04 10:25:14;;;;;;;35.38;15.88;;;8.80;71.60;;;;;;5023355;28;20041;-63
2021/03/04 10:27:40;;;;;;;34.72;16.70;;;8.80;71.80;;;;;;4938802;28;20451;-64
2021/03/04 10:30:13;;;;;;;32.80;14.73;;;8.70;72.30;;;;;;4930834;28;20036;-64
2021/03/04 10:32:39;;;;;;;30.38;14.23;;;8.80;72.00;;;;;;4952284;28;20027;-63
2021/03/04 10:35:13;;;;;;;27.85;12.65;;;8.80;71.60;;;;;;4946689;29;20194;-64
2021/03/04 10:37:40;;;;;;;27.23;13.13;;;8.80;71.20;;;;;;4947787;28;20058;-64
2021/03/04 10:40:08;;;;;;;31.75;14.77;;;8.90;71.30;;;;;;4949100;28;20058;-63
2021/03/04 10:42:34;;;;;;;25.00;11.00;;;8.80;71.30;;;;;;4948510;29;20495;-63
2021/03/04 10:45:00;;;;;;;27.92;11.73;;;8.90;70.90;;;;;;4956750;28;20065;-63
2021/03/04 10:47:27;;;;;;;28.83;13.65;;;8.80;71.30;;;;;;4963965;28;20071;-63
2021/03/04 10:49:53;;;;;;;23.35;10.73;;;8.90;71.10;;;;;;4971897;28;20040;-64
2021/03/04 10:52:20;;;;;;;21.48;11.43;;;9.10;70.60;;;;;;5049286;28;20033;-63
2021/03/04 10:54:45;;;;;;;22.58;10.80;;;9.00;71.10;;;;;;4998190;28;20050;-64
2021/03/04 10:57:11;;;;;;;22.77;10.57;;;9.10;70.40;;;;;;4956117;28;20458;-64
2021/03/04 10:59:37;;;;;;;22.10;9.50;;;9.20;70.20;;;;;;4985337;28;20092;-63
2021/03/04 11:02:02;;;;;;;20.65;8.70;;;9.10;69.60;;;;;;4947193;28;20042;-63
2021/03/04 11:04:28;;;;;;;22.88;11.35;;;9.10;70.20;;;;;;4965642;28;20038;-64
2021/03/04 11:06:54;;;;;;;20.05;9.20;;;9.10;70.30;;;;;;5004383;28;20084;-64
2021/03/04 11:09:19;;;;;;;20.25;9.02;;;9.10;70.20;;;;;;4983789;28;20038;-63
2021/03/04 11:11:45;;;;;;;22.85;12.27;;;9.40;70.30;;;;;;4948034;28;20067;-63
2021/03/04 11:14:11;;;;;;;21.48;10.20;;;9.00;70.70;;;;;;4955313;28;20487;-63
2021/03/04 11:16:36;;;;;;;22.58;11.10;;;9.10;70.90;;;;;;4990748;28;20047;-63
2021/03/04 11:19:03;;;;;;;22.52;10.10;;;9.10;70.70;;;;;;4960765;28;20443;-63
2021/03/04 11:21:30;;;;;;;22.23;10.40;;;9.00;70.60;;;;;;4948881;28;20058;-64
2021/03/04 11:23:56;;;;;;;24.15;12.13;;;9.10;70.30;;;;;;4946640;28;20043;-63
2021/03/04 11:26:21;;;;;;;22.83;9.48;;;9.00;70.90;;;;;;4962800;28;20058;-63
2021/03/04 11:28:47;;;;;;;23.77;11.43;;;9.10;70.40;;;;;;4975855;28;20142;-63
2021/03/04 11:31:13;;;;;;;17.52;8.88;;;9.00;70.30;;;;;;4945649;28;20109;-64
2021/03/04 11:33:38;;;;;;;19.27;9.35;;;9.00;70.90;;;;;;4947270;28;20051;-63
2021/03/04 11:36:04;;;;;;;19.08;9.23;;;9.00;70.50;;;;;;4947196;29;20058;-64
2021/03/04 11:38:30;;;;;;;17.10;8.43;;;8.90;70.90;;;;;;4945130;28;20074;-64
2021/03/04 11:40:56;;;;;;;17.15;8.00;;;8.90;71.00;;;;;;4947612;28;20046;-64
2021/03/04 11:43:21;;;;;;;17.08;7.50;;;9.00;69.90;;;;;;4947577;28;20039;-64
2021/03/04 11:45:47;;;;;;;14.20;7.75;;;8.80;69.60;;;;;;4946892;28;20489;-64
2021/03/04 11:48:13;;;;;;;14.02;6.47;;;9.00;70.20;;;;;;4947195;29;20458;-64
2021/03/04 11:50:38;;;;;;;15.02;7.35;;;9.10;69.30;;;;;;4946560;28;20083;-64
2021/03/04 11:53:06;;;;;;;10.25;5.45;;;9.10;69.70;;;;;;4945117;28;20039;-64
2021/03/04 11:55:32;;;;;;;13.40;7.10;;;9.10;69.60;;;;;;4944566;28;20515;-64
2021/03/04 11:57:58;;;;;;;12.23;6.03;;;9.10;68.60;;;;;;4944700;28;20113;-64
2021/03/04 12:00:25;;;;;;;10.38;5.45;;;9.20;68.20;;;;;;4947383;28;20462;-63
2021/03/04 12:02:50;;;;;;;11.02;5.47;;;9.10;68.70;;;;;;4942623;28;20237;-64
2021/03/04 12:05:16;;;;;;;11.88;5.07;;;9.10;68.10;;;;;;4945416;28;20523;-64
2021/03/04 12:07:42;;;;;;;10.02;5.03;;;9.10;68.10;;;;;;4944917;28;20473;-63
2021/03/04 12:10:10;;;;;;;10.70;6.13;;;9.20;68.00;;;;;;4944178;28;20044;-64
2021/03/04 12:12:35;;;;;;;10.90;4.28;;;9.70;66.50;;;;;;4949315;29;20028;-64
2021/03/04 12:15:01;;;;;;;9.55;4.85;;;9.80;65.20;;;;;;4949709;29;20109;-65
2021/03/04 12:17:27;;;;;;;9.65;4.78;;;9.70;65.60;;;;;;4933830;28;20043;-64
2021/03/04 12:19:53;;;;;;;8.25;4.60;;;9.80;64.70;;;;;;4958223;28;20034;-64
2021/03/04 12:22:19;;;;;;;10.88;4.38;;;9.70;65.30;;;;;;4949545;29;20115;-64
2021/03/04 12:24:44;;;;;;;8.27;3.88;;;9.90;65.10;;;;;;4936467;28;20046;-64
2021/03/04 12:27:10;;;;;;;9.55;4.35;;;9.90;64.80;;;;;;4951248;29;20426;-64
2021/03/04 12:29:35;;;;;;;6.47;3.95;;;10.00;62.90;;;;;;4948641;29;20039;-64
2021/03/04 12:32:01;;;;;;;7.07;3.35;;;9.90;63.50;;;;;;4950018;28;20031;-64
2021/03/04 12:34:27;;;;;;;8.93;4.40;;;9.90;63.60;;;;;;4949559;28;20128;-64
2021/03/04 12:36:53;;;;;;;8.63;3.90;;;10.00;63.50;;;;;;4952300;28;20059;-64
2021/03/04 12:39:18;;;;;;;7.13;3.65;;;10.00;63.40;;;;;;4948271;28;20035;-64
2021/03/04 12:41:44;;;;;;;9.52;3.75;;;10.00;63.00;;;;;;4942048;28;20481;-63